Anthon, Iowa
Current Conditions -  °F | °C
As of 1:52 PM on Saturday 25 Oct 2014 (Local Time) from KSUX Reporting Station
Clear Clear  
Wind Chill: 70°   Ceiling: Unl
Heat Index: 70°   Visibility: 10mi
Dew Point: 34°   Wind: 0mph
Humidity: 27%   Direction: NA
Pressure: 30.12"   Gusts: NA
Location:  42.39°N, 95.87°W
Report Text: KSUX 251852Z 00000KT 10SM CLR 21/01 A3012 RMK AO2 SLP200 T02110011
Loading
Personal Weather Stations






























Interactive Weather Map
Tropical Storm Tracking
New forecast layout! Learn more

10-Day Weather Forecast

Advertisements
Track Severe Weather on mobile